createdAt,value
2023-01-09T00:00:04.416Z,98.0
2023-01-09T00:02:03.655Z,98.0
2023-01-09T00:04:04.452Z,98.0
2023-01-09T00:06:02.828Z,98.0
2023-01-09T00:08:03.896Z,98.0
2023-01-09T00:10:02.630Z,98.0
2023-01-09T00:12:02.806Z,98.0
2023-01-09T00:14:02.840Z,98.0
2023-01-09T00:16:04.353Z,98.0
2023-01-09T00:18:02.705Z,97.0
2023-01-09T00:20:03.134Z,98.0
2023-01-09T00:22:02.765Z,97.0
2023-01-09T00:24:02.768Z,97.0
2023-01-09T00:26:05.722Z,97.0
2023-01-09T00:28:02.882Z,97.0
2023-01-09T00:30:04.511Z,97.0
2023-01-09T00:32:03.422Z,96.0
2023-01-09T00:34:06.848Z,96.0
2023-01-09T00:36:03.644Z,96.0
2023-01-09T00:38:03.167Z,96.0
2023-01-09T00:40:02.713Z,95.0
2023-01-09T00:42:03.815Z,96.0
2023-01-09T00:44:09.575Z,96.0
2023-01-09T00:46:05.621Z,94.0
2023-01-09T00:48:07.303Z,95.0
2023-01-09T00:50:08.512Z,94.0
2023-01-09T00:52:04.655Z,94.0
2023-01-09T00:54:04.131Z,94.0
2023-01-09T00:56:07.193Z,94.0
2023-01-09T00:58:03.375Z,94.0
2023-01-09T01:00:03.283Z,95.0
2023-01-09T01:02:03.328Z,95.0
2023-01-09T01:04:12.612Z,96.0
2023-01-09T01:06:12.144Z,96.0
2023-01-09T01:08:02.835Z,96.0
2023-01-09T01:10:02.894Z,96.0
2023-01-09T01:12:06.598Z,96.0
2023-01-09T01:14:03.930Z,96.0
2023-01-09T01:16:05.871Z,96.0
2023-01-09T01:18:03.972Z,96.0
2023-01-09T01:20:04.394Z,96.0
2023-01-09T01:22:03.150Z,96.0
2023-01-09T01:24:02.692Z,97.0
2023-01-09T01:26:06.284Z,97.0
2023-01-09T01:28:02.659Z,97.0
2023-01-09T01:30:03.654Z,97.0
2023-01-09T01:32:03.487Z,97.0
2023-01-09T01:34:03.788Z,97.0
2023-01-09T01:36:04.446Z,97.0
2023-01-09T01:38:03.520Z,97.0
2023-01-09T01:40:04.418Z,97.0
2023-01-09T01:42:03.792Z,97.0
2023-01-09T01:44:05.202Z,97.0
2023-01-09T01:46:02.663Z,97.0
2023-01-09T01:48:07.385Z,97.0
2023-01-09T01:50:10.035Z,97.0
2023-01-09T01:52:02.666Z,97.0
2023-01-09T01:54:09.592Z,97.0
2023-01-09T01:56:10.042Z,97.0
2023-01-09T01:58:07.956Z,97.0
2023-01-09T02:00:04.768Z,97.0
2023-01-09T02:02:04.224Z,97.0
2023-01-09T02:04:04.144Z,97.0
2023-01-09T02:06:04.549Z,97.0
2023-01-09T02:08:02.770Z,97.0
2023-01-09T02:10:04.447Z,97.0
2023-01-09T02:12:02.925Z,97.0
2023-01-09T02:14:03.752Z,97.0
2023-01-09T02:16:14.007Z,97.0
2023-01-09T02:18:21.689Z,97.0
2023-01-09T02:20:21.883Z,97.0
2023-01-09T02:22:12.842Z,97.0
2023-01-09T02:24:11.706Z,97.0
2023-01-09T02:26:21.686Z,97.0
2023-01-09T02:28:21.660Z,97.0
2023-01-09T02:30:21.647Z,97.0
2023-01-09T02:32:09.712Z,97.0
2023-01-09T02:34:12.261Z,97.0
2023-01-09T02:36:11.684Z,97.0
2023-01-09T02:38:10.605Z,98.0
2023-01-09T02:40:09.925Z,97.0
2023-01-09T02:42:10.215Z,97.0
2023-01-09T02:44:15.037Z,98.0
2023-01-09T02:46:02.781Z,98.0
2023-01-09T02:48:02.819Z,97.0
2023-01-09T02:50:08.353Z,98.0
2023-01-09T02:52:17.208Z,98.0
2023-01-09T02:54:11.617Z,98.0
2023-01-09T02:56:19.860Z,98.0
2023-01-09T02:58:09.905Z,98.0
2023-01-09T03:00:12.087Z,98.0
2023-01-09T03:02:18.110Z,98.0
2023-01-09T03:04:10.287Z,98.0
2023-01-09T03:06:10.478Z,98.0
2023-01-09T03:08:07.053Z,98.0
2023-01-09T03:10:10.313Z,98.0
2023-01-09T03:12:08.113Z,98.0
2023-01-09T03:14:09.486Z,98.0
2023-01-09T03:16:07.370Z,98.0
2023-01-09T03:18:05.957Z,98.0
2023-01-09T03:20:06.255Z,98.0
2023-01-09T03:22:04.192Z,98.0
2023-01-09T03:24:03.691Z,98.0
2023-01-09T03:26:02.645Z,98.0
2023-01-09T03:28:06.033Z,98.0
2023-01-09T03:30:02.665Z,98.0
2023-01-09T03:32:03.489Z,97.0
2023-01-09T03:34:02.644Z,97.0
2023-01-09T03:36:03.955Z,97.0
2023-01-09T03:38:02.688Z,97.0
2023-01-09T03:40:03.749Z,97.0
2023-01-09T03:42:02.766Z,97.0
2023-01-09T03:44:03.572Z,97.0
2023-01-09T03:46:03.820Z,96.0
2023-01-09T03:48:02.861Z,96.0
2023-01-09T03:50:02.695Z,96.0
2023-01-09T03:52:03.343Z,96.0
2023-01-09T03:54:02.718Z,96.0
2023-01-09T03:56:02.847Z,96.0
2023-01-09T03:58:02.640Z,96.0
2023-01-09T04:00:04.183Z,96.0
2023-01-09T04:02:04.157Z,96.0
2023-01-09T04:04:03.505Z,96.0
2023-01-09T04:06:02.754Z,96.0
2023-01-09T04:08:02.878Z,96.0
2023-01-09T04:10:04.167Z,96.0
2023-01-09T04:12:02.763Z,97.0
2023-01-09T04:14:02.629Z,97.0
2023-01-09T04:16:04.045Z,97.0
2023-01-09T04:18:04.083Z,96.0
2023-01-09T04:20:04.314Z,96.0
2023-01-09T04:22:02.650Z,97.0
2023-01-09T04:24:02.793Z,97.0
2023-01-09T04:26:03.223Z,97.0
2023-01-09T04:28:02.855Z,97.0
2023-01-09T04:30:03.566Z,97.0
2023-01-09T04:32:03.485Z,97.0
2023-01-09T04:34:03.314Z,97.0
2023-01-09T04:36:03.461Z,97.0
2023-01-09T04:38:02.770Z,97.0
2023-01-09T04:40:06.373Z,97.0
2023-01-09T04:42:03.788Z,97.0
2023-01-09T04:44:03.264Z,97.0
2023-01-09T04:46:03.124Z,97.0
2023-01-09T04:48:02.708Z,97.0
2023-01-09T04:50:02.828Z,97.0
2023-01-09T04:52:03.458Z,97.0
2023-01-09T04:54:03.068Z,97.0
2023-01-09T04:56:02.630Z,97.0
2023-01-09T04:58:03.274Z,98.0
2023-01-09T05:00:04.846Z,97.0
2023-01-09T05:02:02.956Z,98.0
2023-01-09T05:04:03.965Z,97.0
2023-01-09T05:06:02.749Z,97.0
2023-01-09T05:08:03.261Z,97.0
2023-01-09T05:10:04.186Z,96.0
2023-01-09T05:12:02.924Z,96.0
2023-01-09T05:14:02.714Z,96.0
2023-01-09T05:16:03.139Z,96.0
2023-01-09T05:18:02.694Z,96.0
2023-01-09T05:20:02.742Z,96.0
2023-01-09T05:22:02.684Z,96.0
2023-01-09T05:24:03.325Z,96.0
2023-01-09T05:26:03.974Z,96.0
2023-01-09T05:28:03.429Z,96.0
2023-01-09T05:30:03.638Z,96.0
2023-01-09T05:32:03.294Z,96.0
2023-01-09T05:34:02.613Z,96.0
2023-01-09T05:36:02.707Z,96.0
2023-01-09T05:38:03.390Z,97.0
2023-01-09T05:40:03.750Z,97.0
2023-01-09T05:42:02.699Z,97.0
2023-01-09T05:44:04.270Z,97.0
2023-01-09T05:46:02.703Z,97.0
2023-01-09T05:50:04.003Z,97.0
2023-01-09T05:52:02.647Z,97.0
2023-01-09T05:54:03.707Z,97.0
2023-01-09T05:56:02.439Z,97.0
2023-01-09T05:58:03.023Z,97.0
2023-01-09T06:00:02.756Z,97.0
2023-01-09T06:02:02.953Z,97.0
2023-01-09T06:04:02.638Z,97.0
2023-01-09T06:06:03.076Z,97.0
2023-01-09T06:08:03.015Z,97.0
2023-01-09T06:10:02.481Z,97.0
2023-01-09T06:12:03.272Z,97.0
2023-01-09T06:14:03.181Z,97.0
2023-01-09T06:16:02.688Z,97.0
2023-01-09T06:18:02.543Z,97.0
2023-01-09T06:20:02.569Z,97.0
2023-01-09T06:22:02.979Z,97.0
2023-01-09T06:24:02.662Z,97.0
2023-01-09T06:26:02.885Z,97.0
2023-01-09T06:28:03.299Z,97.0
2023-01-09T06:30:02.682Z,97.0
2023-01-09T06:32:02.406Z,97.0
2023-01-09T06:34:02.500Z,97.0
2023-01-09T06:36:02.686Z,97.0
2023-01-09T06:38:03.054Z,97.0
2023-01-09T06:40:03.550Z,97.0
2023-01-09T06:42:02.546Z,97.0
2023-01-09T06:44:02.454Z,97.0
2023-01-09T06:46:03.874Z,97.0
2023-01-09T06:48:03.384Z,97.0
2023-01-09T06:50:03.194Z,97.0
2023-01-09T06:52:05.109Z,97.0
2023-01-09T06:54:02.483Z,97.0
2023-01-09T06:56:02.550Z,97.0
2023-01-09T06:58:02.440Z,97.0
2023-01-09T07:00:04.001Z,96.0
2023-01-09T07:02:03.164Z,96.0
2023-01-09T07:04:04.793Z,97.0
2023-01-09T07:06:03.071Z,97.0
2023-01-09T07:08:02.440Z,97.0
2023-01-09T07:10:02.434Z,97.0
2023-01-09T07:12:02.913Z,97.0
2023-01-09T07:14:02.614Z,97.0
2023-01-09T07:16:05.053Z,97.0
2023-01-09T07:18:03.863Z,97.0
2023-01-09T07:20:03.180Z,97.0
2023-01-09T07:22:02.425Z,97.0
2023-01-09T07:24:02.676Z,97.0
2023-01-09T07:26:02.621Z,97.0
2023-01-09T07:28:02.544Z,97.0
2023-01-09T07:30:03.383Z,97.0
2023-01-09T07:32:02.471Z,97.0
2023-01-09T07:34:03.195Z,97.0
2023-01-09T07:36:02.534Z,97.0
2023-01-09T07:38:02.613Z,97.0
2023-01-09T07:40:03.037Z,97.0
2023-01-09T07:42:02.495Z,97.0
2023-01-09T07:44:02.461Z,97.0
2023-01-09T07:46:03.253Z,97.0
2023-01-09T07:48:03.052Z,97.0
2023-01-09T07:50:02.645Z,97.0
2023-01-09T07:52:04.555Z,97.0
2023-01-09T07:54:02.466Z,97.0
2023-01-09T07:56:02.462Z,97.0
2023-01-09T07:58:03.175Z,97.0
2023-01-09T08:00:03.288Z,97.0
2023-01-09T08:02:05.246Z,97.0
2023-01-09T08:04:02.594Z,97.0
2023-01-09T08:06:03.042Z,97.0
2023-01-09T08:08:03.197Z,97.0
2023-01-09T08:10:02.539Z,97.0
2023-01-09T08:12:03.849Z,97.0
2023-01-09T08:14:03.582Z,97.0
2023-01-09T08:16:02.655Z,97.0
2023-01-09T08:18:02.531Z,97.0
2023-01-09T08:20:03.725Z,98.0
2023-01-09T08:22:02.456Z,98.0
2023-01-09T08:24:02.995Z,98.0
2023-01-09T08:26:03.771Z,98.0
2023-01-09T08:28:02.428Z,98.0
2023-01-09T08:30:03.163Z,98.0
2023-01-09T08:32:02.604Z,98.0
2023-01-09T08:34:03.264Z,98.0
2023-01-09T08:36:03.151Z,98.0
2023-01-09T08:38:03.592Z,98.0
2023-01-09T08:40:02.733Z,98.0
2023-01-09T08:42:12.625Z,98.0
2023-01-09T08:44:11.860Z,98.0
2023-01-09T08:46:21.216Z,98.0
2023-01-09T08:48:03.065Z,98.0
2023-01-09T08:50:04.180Z,98.0
2023-01-09T08:52:04.223Z,98.0
2023-01-09T08:54:02.607Z,98.0
2023-01-09T08:56:04.138Z,98.0
2023-01-09T08:58:02.595Z,98.0
2023-01-09T09:00:02.758Z,98.0
2023-01-09T09:02:02.604Z,98.0
2023-01-09T09:04:04.871Z,98.0
2023-01-09T09:06:02.785Z,98.0
2023-01-09T09:08:03.620Z,98.0
2023-01-09T09:10:02.567Z,98.0
2023-01-09T09:12:02.442Z,98.0
2023-01-09T09:14:13.257Z,98.0
2023-01-09T09:16:02.550Z,98.0
2023-01-09T09:18:05.168Z,98.0
2023-01-09T09:20:02.409Z,98.0
2023-01-09T09:22:02.493Z,98.0
2023-01-09T09:24:02.448Z,98.0
2023-01-09T09:26:02.630Z,98.0
2023-01-09T09:28:02.572Z,98.0
2023-01-09T09:30:03.845Z,98.0
2023-01-09T09:32:02.477Z,98.0
2023-01-09T09:34:02.494Z,98.0
2023-01-09T09:36:02.521Z,98.0
2023-01-09T09:38:05.733Z,98.0
2023-01-09T09:40:13.415Z,98.0
2023-01-09T09:42:30.928Z,98.0
2023-01-09T09:44:30.910Z,98.0
2023-01-09T09:46:12.106Z,98.0
2023-01-09T09:48:15.890Z,98.0
2023-01-09T09:50:11.905Z,98.0
2023-01-09T09:52:11.608Z,98.0
2023-01-09T09:54:08.158Z,98.0
2023-01-09T09:56:04.348Z,98.0
2023-01-09T09:58:07.399Z,98.0
2023-01-09T10:00:05.112Z,98.0
2023-01-09T10:02:10.918Z,98.0
2023-01-09T10:04:10.119Z,98.0
2023-01-09T10:06:09.541Z,98.0
2023-01-09T10:08:15.425Z,98.0
2023-01-09T10:10:06.124Z,98.0
2023-01-09T10:12:11.305Z,98.0
2023-01-09T10:14:06.020Z,98.0
2023-01-09T10:16:10.772Z,98.0
2023-01-09T10:18:13.256Z,98.0
2023-01-09T10:20:21.666Z,98.0
2023-01-09T10:22:15.106Z,97.0
2023-01-09T10:24:20.528Z,97.0
2023-01-09T10:26:07.365Z,98.0
2023-01-09T10:28:20.244Z,98.0
2023-01-09T10:30:21.511Z,98.0
2023-01-09T10:32:20.913Z,98.0
2023-01-09T10:34:14.349Z,98.0
2023-01-09T10:36:21.525Z,98.0
2023-01-09T10:38:06.345Z,98.0
2023-01-09T10:40:08.185Z,98.0
2023-01-09T10:42:10.882Z,98.0
2023-01-09T10:44:10.302Z,98.0
2023-01-09T10:46:07.803Z,98.0
2023-01-09T10:48:14.606Z,98.0
2023-01-09T10:50:13.072Z,98.0
2023-01-09T10:52:14.820Z,98.0
2023-01-09T10:54:05.448Z,98.0
2023-01-09T10:56:12.022Z,98.0
2023-01-09T10:58:10.692Z,98.0
2023-01-09T11:00:04.070Z,98.0
2023-01-09T11:02:02.633Z,98.0
2023-01-09T11:04:03.340Z,98.0
2023-01-09T11:06:03.881Z,98.0
2023-01-09T11:08:12.696Z,98.0
2023-01-09T11:10:06.963Z,98.0
2023-01-09T11:12:21.469Z,98.0
2023-01-09T11:14:07.878Z,98.0
2023-01-09T11:16:08.801Z,98.0
2023-01-09T11:18:21.070Z,98.0
2023-01-09T11:20:06.424Z,98.0
2023-01-09T11:22:14.582Z,98.0
2023-01-09T11:24:21.668Z,98.0
2023-01-09T11:26:03.432Z,98.0
2023-01-09T11:28:06.710Z,98.0
2023-01-09T11:30:15.294Z,98.0
2023-01-09T11:32:02.482Z,98.0
2023-01-09T11:34:03.441Z,98.0
2023-01-09T11:36:07.534Z,98.0
2023-01-09T11:38:06.730Z,98.0
2023-01-09T11:40:02.818Z,98.0
2023-01-09T11:42:05.459Z,98.0
2023-01-09T11:44:05.222Z,98.0
2023-01-09T11:46:05.260Z,98.0
2023-01-09T11:48:12.628Z,98.0
2023-01-09T11:50:16.646Z,98.0
2023-01-09T11:52:15.363Z,98.0
2023-01-09T11:54:21.256Z,98.0
2023-01-09T11:56:04.223Z,98.0
2023-01-09T11:58:02.413Z,98.0
2023-01-09T12:00:14.178Z,98.0
2023-01-09T12:02:21.639Z,98.0
2023-01-09T12:04:15.134Z,98.0
2023-01-09T12:06:13.072Z,98.0
2023-01-09T12:08:18.576Z,98.0
2023-01-09T12:10:15.737Z,98.0
2023-01-09T12:12:12.733Z,98.0
2023-01-09T12:14:13.172Z,98.0
2023-01-09T12:16:11.241Z,98.0
2023-01-09T12:18:23.372Z,98.0
2023-01-09T12:20:22.348Z,98.0
2023-01-09T12:22:11.165Z,98.0
2023-01-09T12:24:21.712Z,98.0
2023-01-09T12:26:16.142Z,98.0
2023-01-09T12:28:20.521Z,98.0
2023-01-09T12:30:15.586Z,98.0
2023-01-09T12:32:19.149Z,98.0
2023-01-09T12:34:13.519Z,98.0
2023-01-09T12:36:11.323Z,98.0
2023-01-09T12:38:21.361Z,98.0
2023-01-09T12:40:13.631Z,98.0
2023-01-09T12:42:12.594Z,98.0
2023-01-09T12:44:34.415Z,98.0
2023-01-09T12:46:12.487Z,98.0
2023-01-09T12:48:19.948Z,98.0
2023-01-09T12:50:09.451Z,98.0
2023-01-09T12:52:10.343Z,98.0
2023-01-09T12:54:09.656Z,98.0
2023-01-09T12:56:07.694Z,98.0
2023-01-09T12:58:12.341Z,98.0
2023-01-09T13:00:07.260Z,98.0
2023-01-09T13:02:16.692Z,98.0
2023-01-09T13:04:12.513Z,98.0
2023-01-09T13:06:06.351Z,97.0
2023-01-09T13:08:08.133Z,97.0
2023-01-09T13:10:09.671Z,97.0
2023-01-09T13:12:08.942Z,97.0
2023-01-09T13:14:10.289Z,97.0
2023-01-09T13:16:06.605Z,97.0
2023-01-09T13:18:12.437Z,97.0
2023-01-09T13:20:03.507Z,97.0
2023-01-09T13:22:05.441Z,97.0
2023-01-09T13:24:14.451Z,97.0
2023-01-09T13:26:05.755Z,97.0
2023-01-09T13:28:08.820Z,97.0
2023-01-09T13:30:17.383Z,98.0
2023-01-09T13:32:21.651Z,98.0
2023-01-09T13:34:08.678Z,98.0
2023-01-09T13:36:03.331Z,97.0
2023-01-09T13:38:02.520Z,97.0
2023-01-09T13:40:05.493Z,97.0
2023-01-09T13:42:15.483Z,97.0
2023-01-09T13:44:06.803Z,97.0
2023-01-09T13:46:02.595Z,97.0
2023-01-09T13:48:21.541Z,97.0
2023-01-09T13:50:21.930Z,97.0
2023-01-09T13:52:04.225Z,97.0
2023-01-09T13:54:03.115Z,98.0
2023-01-09T13:56:06.032Z,98.0
2023-01-09T13:58:22.893Z,98.0
2023-01-09T14:00:21.617Z,98.0
2023-01-09T14:02:02.573Z,98.0
2023-01-09T14:04:21.604Z,98.0
2023-01-09T14:06:11.634Z,98.0
2023-01-09T14:08:06.458Z,98.0
2023-01-09T14:10:05.838Z,98.0
2023-01-09T14:12:06.117Z,98.0
2023-01-09T14:14:15.967Z,98.0
2023-01-09T14:16:07.198Z,98.0
2023-01-09T14:18:05.742Z,98.0
2023-01-09T14:20:05.710Z,98.0
2023-01-09T14:22:04.180Z,98.0
2023-01-09T14:24:06.861Z,98.0
2023-01-09T14:26:03.461Z,98.0
2023-01-09T14:28:15.643Z,98.0
2023-01-09T14:30:21.492Z,98.0
2023-01-09T14:32:21.435Z,98.0
2023-01-09T14:34:23.784Z,98.0
2023-01-09T14:36:12.896Z,98.0
2023-01-09T14:38:14.582Z,98.0
2023-01-09T14:40:03.321Z,98.0
2023-01-09T14:42:07.465Z,98.0
2023-01-09T14:44:06.524Z,98.0
2023-01-09T14:46:11.107Z,98.0
2023-01-09T14:48:06.324Z,98.0
2023-01-09T14:50:09.218Z,98.0
2023-01-09T14:52:13.269Z,98.0
2023-01-09T14:54:11.990Z,98.0
2023-01-09T14:56:06.316Z,98.0
2023-01-09T14:58:12.925Z,98.0
2023-01-09T15:00:06.067Z,98.0
2023-01-09T15:02:02.688Z,98.0
2023-01-09T15:04:05.255Z,98.0
2023-01-09T15:06:03.126Z,98.0
2023-01-09T15:08:05.230Z,98.0
2023-01-09T15:10:04.063Z,98.0
2023-01-09T15:12:07.294Z,98.0
2023-01-09T15:14:05.229Z,98.0
2023-01-09T15:16:06.083Z,98.0
2023-01-09T15:18:06.702Z,98.0
2023-01-09T15:20:06.504Z,98.0
2023-01-09T15:22:04.695Z,98.0
2023-01-09T15:24:13.438Z,98.0
2023-01-09T15:26:12.983Z,98.0
2023-01-09T15:28:21.482Z,98.0
2023-01-09T15:30:16.618Z,98.0
2023-01-09T15:32:06.766Z,98.0
2023-01-09T15:34:04.605Z,98.0
2023-01-09T15:36:08.840Z,98.0
2023-01-09T15:38:03.127Z,98.0
2023-01-09T15:40:05.308Z,98.0
2023-01-09T15:42:12.280Z,98.0
2023-01-09T15:44:05.357Z,98.0
2023-01-09T15:46:03.318Z,98.0
2023-01-09T15:48:17.574Z,98.0
2023-01-09T15:50:04.630Z,98.0
2023-01-09T15:52:04.126Z,98.0
2023-01-09T15:54:03.811Z,98.0
2023-01-09T15:56:16.562Z,98.0
2023-01-09T15:58:04.628Z,98.0
2023-01-09T16:00:21.696Z,98.0
2023-01-09T16:02:14.904Z,98.0
2023-01-09T16:04:08.702Z,97.0
2023-01-09T16:06:09.517Z,97.0
2023-01-09T16:08:02.948Z,96.0
2023-01-09T16:10:02.533Z,95.0
2023-01-09T16:12:04.718Z,95.0
2023-01-09T16:14:13.697Z,95.0
2023-01-09T16:16:03.378Z,95.0
2023-01-09T16:18:06.133Z,94.0
2023-01-09T16:20:14.409Z,94.0
2023-01-09T16:22:04.229Z,94.0
2023-01-09T16:24:13.743Z,93.0
2023-01-09T16:26:10.883Z,95.0
2023-01-09T16:30:05.208Z,95.0
2023-01-09T16:32:05.066Z,95.0
2023-01-09T16:34:06.041Z,95.0
2023-01-09T16:36:04.689Z,96.0
2023-01-09T16:38:02.424Z,96.0
2023-01-09T16:40:21.602Z,96.0
2023-01-09T16:42:17.963Z,96.0
2023-01-09T16:44:06.746Z,96.0
2023-01-09T16:46:02.520Z,95.0
2023-01-09T16:48:06.160Z,95.0
2023-01-09T16:50:02.389Z,96.0
2023-01-09T16:52:02.851Z,95.0
2023-01-09T16:54:02.444Z,95.0
2023-01-09T16:56:02.722Z,95.0
2023-01-09T16:58:03.779Z,96.0
2023-01-09T17:00:04.279Z,95.0
2023-01-09T17:02:03.093Z,95.0
2023-01-09T17:04:11.075Z,95.0
2023-01-09T17:06:05.417Z,95.0
2023-01-09T17:08:02.609Z,96.0
2023-01-09T17:10:03.437Z,96.0
2023-01-09T17:12:02.642Z,96.0
2023-01-09T17:14:03.647Z,96.0
2023-01-09T17:16:02.569Z,96.0
2023-01-09T17:18:05.140Z,96.0
2023-01-09T17:20:05.452Z,96.0
2023-01-09T17:22:02.601Z,96.0
2023-01-09T17:24:11.906Z,96.0
2023-01-09T17:26:12.712Z,95.0
2023-01-09T17:28:14.810Z,95.0
2023-01-09T17:30:17.570Z,94.0
2023-01-09T17:32:03.606Z,95.0
2023-01-09T17:34:03.286Z,95.0
2023-01-09T17:36:03.516Z,94.0
2023-01-09T17:38:03.293Z,94.0
2023-01-09T17:40:03.336Z,93.0
2023-01-09T17:42:02.497Z,92.0
2023-01-09T17:44:02.657Z,93.0
2023-01-09T17:46:03.489Z,93.0
2023-01-09T17:48:02.498Z,92.0
2023-01-09T17:50:02.785Z,92.0
2023-01-09T17:52:02.412Z,91.0
2023-01-09T17:54:02.513Z,89.0
2023-01-09T17:56:04.563Z,91.0
2023-01-09T17:58:02.892Z,89.0
2023-01-09T18:00:05.708Z,88.0
2023-01-09T18:02:03.071Z,90.0
2023-01-09T18:04:03.436Z,88.0
2023-01-09T18:06:03.659Z,91.0
2023-01-09T18:08:03.401Z,91.0
2023-01-09T18:10:03.043Z,89.0
2023-01-09T18:12:02.962Z,87.0
2023-01-09T18:14:02.444Z,84.0
2023-01-09T18:16:03.149Z,85.0
2023-01-09T18:18:03.022Z,89.0
2023-01-09T18:20:02.915Z,89.0
2023-01-09T18:22:03.478Z,88.0
2023-01-09T18:24:02.523Z,82.0
2023-01-09T18:26:06.697Z,83.0
2023-01-09T18:28:03.316Z,85.0
2023-01-09T18:30:05.312Z,87.0
2023-01-09T18:32:02.883Z,85.0
2023-01-09T18:34:05.147Z,85.0
2023-01-09T18:36:06.441Z,81.0
2023-01-09T18:38:02.445Z,82.0
2023-01-09T18:40:03.012Z,83.0
2023-01-09T18:42:02.500Z,79.0
2023-01-09T18:44:03.502Z,79.0
2023-01-09T18:46:06.457Z,83.0
2023-01-09T18:48:02.484Z,81.0
2023-01-09T18:50:03.008Z,83.0
2023-01-09T18:52:02.447Z,78.0
2023-01-09T18:54:03.480Z,78.0
2023-01-09T18:56:05.440Z,79.0
2023-01-09T18:58:02.633Z,81.0
2023-01-09T19:00:03.670Z,78.0
2023-01-09T19:02:02.509Z,78.0
2023-01-09T19:04:02.610Z,79.0
2023-01-09T19:06:04.057Z,79.0
2023-01-09T19:08:04.134Z,79.0
2023-01-09T19:10:03.782Z,81.0
2023-01-09T19:12:03.090Z,80.0
2023-01-09T19:14:02.447Z,79.0
2023-01-09T19:16:04.261Z,78.0
2023-01-09T19:18:03.059Z,77.0
2023-01-09T19:20:02.678Z,77.0
2023-01-09T19:22:03.189Z,78.0
2023-01-09T19:24:03.116Z,79.0
2023-01-09T19:26:05.833Z,77.0
2023-01-09T19:28:03.177Z,80.0
2023-01-09T19:30:02.579Z,77.0
2023-01-09T19:32:04.207Z,79.0
2023-01-09T19:34:03.013Z,80.0
2023-01-09T19:36:02.645Z,77.0
2023-01-09T19:38:03.037Z,77.0
2023-01-09T19:40:02.485Z,77.0
2023-01-09T19:42:02.446Z,77.0
2023-01-09T19:44:04.019Z,78.0
2023-01-09T19:46:08.031Z,74.0
2023-01-09T19:48:02.605Z,77.0
2023-01-09T19:50:05.267Z,78.0
2023-01-09T19:52:02.415Z,80.0
2023-01-09T19:54:02.502Z,75.0
2023-01-09T19:56:13.533Z,78.0
2023-01-09T19:58:02.598Z,75.0
2023-01-09T20:00:02.747Z,77.0
2023-01-09T20:02:03.100Z,73.0
2023-01-09T20:04:07.221Z,75.0
2023-01-09T20:06:05.597Z,77.0
2023-01-09T20:08:06.047Z,79.0
2023-01-09T20:10:02.721Z,74.0
2023-01-09T20:12:04.881Z,79.0
2023-01-09T20:14:02.499Z,76.0
2023-01-09T20:16:03.891Z,71.0
2023-01-09T20:18:03.831Z,71.0
2023-01-09T20:20:03.533Z,73.0
2023-01-09T20:22:03.671Z,70.0
2023-01-09T20:24:05.064Z,75.0
2023-01-09T20:26:03.567Z,70.0
2023-01-09T20:28:03.419Z,71.0
2023-01-09T20:30:02.751Z,70.0
2023-01-09T20:32:05.770Z,71.0
2023-01-09T20:34:02.952Z,69.0
2023-01-09T20:36:04.358Z,70.0
2023-01-09T20:38:03.331Z,72.0
2023-01-09T20:40:02.424Z,73.0
2023-01-09T20:42:03.428Z,67.0
2023-01-09T20:44:06.586Z,67.0
2023-01-09T20:46:03.129Z,66.0
2023-01-09T20:48:03.084Z,64.0
2023-01-09T20:50:02.482Z,64.0
2023-01-09T20:52:02.715Z,64.0
2023-01-09T20:54:04.038Z,65.0
2023-01-09T20:56:05.760Z,65.0
2023-01-09T20:58:03.619Z,67.0
2023-01-09T21:00:03.537Z,65.0
2023-01-09T21:02:02.415Z,65.0
2023-01-09T21:04:02.762Z,68.0
2023-01-09T21:06:05.136Z,67.0
2023-01-09T21:08:02.654Z,64.0
2023-01-09T21:10:02.650Z,66.0
2023-01-09T21:12:02.481Z,70.0
2023-01-09T21:14:02.431Z,67.0
2023-01-09T21:16:04.283Z,64.0
2023-01-09T21:18:02.684Z,65.0
2023-01-09T21:20:03.626Z,69.0
2023-01-09T21:22:02.563Z,68.0
2023-01-09T21:24:04.168Z,68.0
2023-01-09T21:26:08.968Z,67.0
2023-01-09T21:28:02.419Z,66.0
2023-01-09T21:30:03.333Z,64.0
2023-01-09T21:32:02.690Z,67.0
2023-01-09T21:34:05.290Z,63.0
2023-01-09T21:36:02.478Z,68.0
2023-01-09T21:38:02.493Z,69.0
2023-01-09T21:40:05.295Z,64.0
2023-01-09T21:42:11.947Z,71.0
2023-01-09T21:44:12.059Z,70.0
2023-01-09T21:46:12.185Z,65.0
2023-01-09T21:48:04.073Z,68.0
2023-01-09T21:50:02.522Z,65.0
2023-01-09T21:52:04.131Z,70.0
2023-01-09T21:54:02.470Z,71.0
2023-01-09T21:56:03.531Z,74.0
2023-01-09T21:58:03.091Z,73.0
2023-01-09T22:00:03.244Z,77.0
2023-01-09T22:02:02.420Z,77.0
2023-01-09T22:04:03.830Z,77.0
2023-01-09T22:06:03.904Z,78.0
2023-01-09T22:08:02.633Z,79.0
2023-01-09T22:10:02.514Z,80.0
2023-01-09T22:12:02.554Z,81.0
2023-01-09T22:14:02.503Z,81.0
2023-01-09T22:16:05.017Z,83.0
2023-01-09T22:18:02.512Z,85.0
2023-01-09T22:20:02.613Z,85.0
2023-01-09T22:22:03.326Z,86.0
2023-01-09T22:24:04.933Z,82.0
2023-01-09T22:26:08.798Z,84.0
2023-01-09T22:28:02.411Z,86.0
2023-01-09T22:30:02.783Z,87.0
2023-01-09T22:32:02.882Z,88.0
2023-01-09T22:34:03.180Z,88.0
2023-01-09T22:36:05.494Z,88.0
2023-01-09T22:38:02.639Z,88.0
2023-01-09T22:40:03.236Z,88.0
2023-01-09T22:42:02.472Z,89.0
2023-01-09T22:44:02.662Z,89.0
2023-01-09T22:46:04.941Z,88.0
2023-01-09T22:48:02.550Z,90.0
2023-01-09T22:50:02.647Z,90.0
2023-01-09T22:52:02.415Z,89.0
2023-01-09T22:54:03.143Z,89.0
2023-01-09T22:56:04.984Z,90.0
2023-01-09T22:58:02.628Z,90.0
2023-01-09T23:00:02.894Z,91.0
2023-01-09T23:02:02.577Z,91.0
2023-01-09T23:04:03.287Z,92.0
2023-01-09T23:06:04.433Z,91.0
2023-01-09T23:08:02.605Z,92.0
2023-01-09T23:10:03.292Z,92.0
2023-01-09T23:12:02.723Z,92.0
2023-01-09T23:14:02.963Z,92.0
2023-01-09T23:16:02.556Z,93.0
2023-01-09T23:18:03.088Z,93.0
2023-01-09T23:20:02.661Z,93.0
2023-01-09T23:22:04.684Z,92.0
2023-01-09T23:24:02.676Z,92.0
2023-01-09T23:26:04.644Z,92.0
2023-01-09T23:28:02.547Z,93.0
2023-01-09T23:30:02.523Z,93.0
2023-01-09T23:32:03.798Z,93.0
2023-01-09T23:34:04.879Z,93.0
2023-01-09T23:36:02.466Z,93.0
2023-01-09T23:38:03.169Z,93.0
2023-01-09T23:40:02.521Z,93.0
2023-01-09T23:42:11.912Z,94.0
2023-01-09T23:44:02.605Z,94.0
2023-01-09T23:46:02.878Z,94.0
2023-01-09T23:48:02.563Z,94.0
2023-01-09T23:50:03.544Z,95.0
2023-01-09T23:52:05.565Z,95.0
2023-01-09T23:54:02.486Z,94.0
2023-01-09T23:56:03.661Z,95.0
2023-01-09T23:58:03.194Z,95.0
